sensor_id;sensor_type;location;lat;lon;timestamp;P1;durP1;ratioP1;P2;durP2;ratioP2
18146;SDS011;9199;48.832;9.182;2023-04-20T00:01:52;7.20;;;3.55;;
18146;SDS011;9199;48.832;9.182;2023-04-20T00:04:18;8.25;;;3.50;;
18146;SDS011;9199;48.832;9.182;2023-04-20T00:06:46;7.57;;;3.83;;
18146;SDS011;9199;48.832;9.182;2023-04-20T00:09:13;6.38;;;3.80;;
18146;SDS011;9199;48.832;9.182;2023-04-20T00:11:40;10.10;;;3.80;;
18146;SDS011;9199;48.832;9.182;2023-04-20T00:14:06;5.55;;;3.30;;
18146;SDS011;9199;48.832;9.182;2023-04-20T00:16:33;7.85;;;3.72;;
18146;SDS011;9199;48.832;9.182;2023-04-20T00:19:01;7.47;;;3.90;;
18146;SDS011;9199;48.832;9.182;2023-04-20T00:21:28;7.55;;;3.65;;
18146;SDS011;9199;48.832;9.182;2023-04-20T00:23:54;6.85;;;3.60;;
18146;SDS011;9199;48.832;9.182;2023-04-20T00:26:21;8.73;;;3.90;;
18146;SDS011;9199;48.832;9.182;2023-04-20T00:28:48;8.98;;;3.95;;
18146;SDS011;9199;48.832;9.182;2023-04-20T00:31:16;7.23;;;4.17;;
18146;SDS011;9199;48.832;9.182;2023-04-20T00:33:42;7.68;;;3.85;;
18146;SDS011;9199;48.832;9.182;2023-04-20T00:36:10;7.20;;;4.00;;
18146;SDS011;9199;48.832;9.182;2023-04-20T00:38:37;7.18;;;4.38;;
18146;SDS011;9199;48.832;9.182;2023-04-20T00:41:04;7.13;;;4.10;;
18146;SDS011;9199;48.832;9.182;2023-04-20T00:43:30;7.30;;;3.83;;
18146;SDS011;9199;48.832;9.182;2023-04-20T00:45:57;6.93;;;4.10;;
18146;SDS011;9199;48.832;9.182;2023-04-20T00:48:24;8.38;;;4.30;;
18146;SDS011;9199;48.832;9.182;2023-04-20T00:50:51;8.18;;;4.07;;
18146;SDS011;9199;48.832;9.182;2023-04-20T00:53:19;6.43;;;3.88;;
18146;SDS011;9199;48.832;9.182;2023-04-20T00:55:46;8.47;;;4.20;;
18146;SDS011;9199;48.832;9.182;2023-04-20T00:58:13;8.23;;;4.72;;
18146;SDS011;9199;48.832;9.182;2023-04-20T01:00:40;9.35;;;4.10;;
18146;SDS011;9199;48.832;9.182;2023-04-20T01:03:06;8.50;;;4.70;;
18146;SDS011;9199;48.832;9.182;2023-04-20T01:05:33;7.45;;;4.38;;
18146;SDS011;9199;48.832;9.182;2023-04-20T01:08:00;7.67;;;4.27;;
18146;SDS011;9199;48.832;9.182;2023-04-20T01:10:28;7.40;;;4.32;;
18146;SDS011;9199;48.832;9.182;2023-04-20T01:12:55;8.90;;;4.05;;
18146;SDS011;9199;48.832;9.182;2023-04-20T01:15:22;9.15;;;3.95;;
18146;SDS011;9199;48.832;9.182;2023-04-20T01:17:49;7.78;;;4.22;;
18146;SDS011;9199;48.832;9.182;2023-04-20T01:20:16;7.93;;;4.17;;
18146;SDS011;9199;48.832;9.182;2023-04-20T01:22:46;8.98;;;4.20;;
18146;SDS011;9199;48.832;9.182;2023-04-20T01:25:13;9.30;;;4.30;;
18146;SDS011;9199;48.832;9.182;2023-04-20T01:27:41;9.80;;;4.28;;
18146;SDS011;9199;48.832;9.182;2023-04-20T01:30:08;7.25;;;4.25;;
18146;SDS011;9199;48.832;9.182;2023-04-20T01:32:36;7.73;;;4.10;;
18146;SDS011;9199;48.832;9.182;2023-04-20T01:35:03;7.32;;;3.97;;
18146;SDS011;9199;48.832;9.182;2023-04-20T01:37:31;7.95;;;4.07;;
18146;SDS011;9199;48.832;9.182;2023-04-20T01:39:59;9.15;;;4.47;;
18146;SDS011;9199;48.832;9.182;2023-04-20T01:42:26;7.43;;;4.07;;
18146;SDS011;9199;48.832;9.182;2023-04-20T01:44:52;9.13;;;5.07;;
18146;SDS011;9199;48.832;9.182;2023-04-20T01:47:19;8.18;;;4.60;;
18146;SDS011;9199;48.832;9.182;2023-04-20T01:49:46;7.22;;;4.07;;
18146;SDS011;9199;48.832;9.182;2023-04-20T01:52:12;6.95;;;4.28;;
18146;SDS011;9199;48.832;9.182;2023-04-20T01:54:39;8.38;;;4.25;;
18146;SDS011;9199;48.832;9.182;2023-04-20T01:57:07;8.33;;;4.13;;
18146;SDS011;9199;48.832;9.182;2023-04-20T01:59:34;8.30;;;4.25;;
18146;SDS011;9199;48.832;9.182;2023-04-20T02:02:01;8.50;;;4.40;;
18146;SDS011;9199;48.832;9.182;2023-04-20T02:04:27;7.93;;;4.10;;
18146;SDS011;9199;48.832;9.182;2023-04-20T02:06:54;7.03;;;4.00;;
18146;SDS011;9199;48.832;9.182;2023-04-20T02:09:21;8.00;;;4.27;;
18146;SDS011;9199;48.832;9.182;2023-04-20T02:11:48;7.50;;;4.22;;
18146;SDS011;9199;48.832;9.182;2023-04-20T02:14:16;9.70;;;4.82;;
18146;SDS011;9199;48.832;9.182;2023-04-20T02:16:42;9.00;;;5.13;;
18146;SDS011;9199;48.832;9.182;2023-04-20T02:19:09;9.00;;;4.60;;
18146;SDS011;9199;48.832;9.182;2023-04-20T02:21:36;9.00;;;4.40;;
18146;SDS011;9199;48.832;9.182;2023-04-20T02:24:03;6.75;;;4.13;;
18146;SDS011;9199;48.832;9.182;2023-04-20T02:26:30;8.70;;;4.45;;
18146;SDS011;9199;48.832;9.182;2023-04-20T02:28:57;7.38;;;4.35;;
18146;SDS011;9199;48.832;9.182;2023-04-20T02:31:25;8.05;;;4.35;;
18146;SDS011;9199;48.832;9.182;2023-04-20T02:33:51;7.87;;;4.47;;
18146;SDS011;9199;48.832;9.182;2023-04-20T02:36:18;8.35;;;4.40;;
18146;SDS011;9199;48.832;9.182;2023-04-20T02:38:45;9.98;;;4.70;;
18146;SDS011;9199;48.832;9.182;2023-04-20T02:41:11;7.18;;;4.30;;
18146;SDS011;9199;48.832;9.182;2023-04-20T02:43:38;7.55;;;4.45;;
18146;SDS011;9199;48.832;9.182;2023-04-20T02:46:05;8.90;;;4.27;;
18146;SDS011;9199;48.832;9.182;2023-04-20T02:48:33;7.15;;;4.10;;
18146;SDS011;9199;48.832;9.182;2023-04-20T02:51:00;8.73;;;4.45;;
18146;SDS011;9199;48.832;9.182;2023-04-20T02:53:26;7.97;;;4.18;;
18146;SDS011;9199;48.832;9.182;2023-04-20T02:55:53;9.00;;;4.35;;
18146;SDS011;9199;48.832;9.182;2023-04-20T02:58:20;8.63;;;4.67;;
18146;SDS011;9199;48.832;9.182;2023-04-20T03:00:46;7.95;;;4.70;;
18146;SDS011;9199;48.832;9.182;2023-04-20T03:03:13;9.70;;;4.82;;
18146;SDS011;9199;48.832;9.182;2023-04-20T03:05:42;8.00;;;4.82;;
18146;SDS011;9199;48.832;9.182;2023-04-20T03:08:09;8.50;;;4.70;;
18146;SDS011;9199;48.832;9.182;2023-04-20T03:10:35;10.87;;;5.03;;
18146;SDS011;9199;48.832;9.182;2023-04-20T03:13:02;8.55;;;5.13;;
18146;SDS011;9199;48.832;9.182;2023-04-20T03:15:29;10.07;;;5.63;;
18146;SDS011;9199;48.832;9.182;2023-04-20T03:17:55;12.05;;;5.00;;
18146;SDS011;9199;48.832;9.182;2023-04-20T03:20:22;8.98;;;5.60;;
18146;SDS011;9199;48.832;9.182;2023-04-20T03:22:50;9.20;;;5.17;;
18146;SDS011;9199;48.832;9.182;2023-04-20T03:25:17;8.48;;;5.35;;
18146;SDS011;9199;48.832;9.182;2023-04-20T03:27:44;7.82;;;4.55;;
18146;SDS011;9199;48.832;9.182;2023-04-20T03:30:12;8.85;;;5.15;;
18146;SDS011;9199;48.832;9.182;2023-04-20T03:32:38;10.48;;;5.68;;
18146;SDS011;9199;48.832;9.182;2023-04-20T03:35:06;10.20;;;5.60;;
18146;SDS011;9199;48.832;9.182;2023-04-20T03:37:34;10.35;;;5.68;;
18146;SDS011;9199;48.832;9.182;2023-04-20T03:40:03;9.23;;;5.38;;
18146;SDS011;9199;48.832;9.182;2023-04-20T03:42:31;9.23;;;5.70;;
18146;SDS011;9199;48.832;9.182;2023-04-20T03:44:57;9.40;;;6.30;;
18146;SDS011;9199;48.832;9.182;2023-04-20T03:47:24;8.77;;;5.33;;
18146;SDS011;9199;48.832;9.182;2023-04-20T03:49:51;10.50;;;5.80;;
18146;SDS011;9199;48.832;9.182;2023-04-20T03:52:17;13.57;;;6.35;;
18146;SDS011;9199;48.832;9.182;2023-04-20T03:54:44;8.80;;;5.47;;
18146;SDS011;9199;48.832;9.182;2023-04-20T03:57:12;8.95;;;5.63;;
18146;SDS011;9199;48.832;9.182;2023-04-20T03:59:39;9.53;;;5.93;;
18146;SDS011;9199;48.832;9.182;2023-04-20T04:02:05;9.35;;;5.22;;
18146;SDS011;9199;48.832;9.182;2023-04-20T04:04:34;10.63;;;5.95;;
18146;SDS011;9199;48.832;9.182;2023-04-20T04:07:01;10.40;;;6.18;;
18146;SDS011;9199;48.832;9.182;2023-04-20T04:09:28;11.88;;;5.65;;
18146;SDS011;9199;48.832;9.182;2023-04-20T04:11:54;9.50;;;6.00;;
18146;SDS011;9199;48.832;9.182;2023-04-20T04:14:23;8.95;;;5.80;;
18146;SDS011;9199;48.832;9.182;2023-04-20T04:16:49;9.57;;;5.55;;
18146;SDS011;9199;48.832;9.182;2023-04-20T04:19:16;8.88;;;5.20;;
18146;SDS011;9199;48.832;9.182;2023-04-20T04:21:43;10.27;;;5.90;;
18146;SDS011;9199;48.832;9.182;2023-04-20T04:24:09;11.53;;;6.50;;
18146;SDS011;9199;48.832;9.182;2023-04-20T04:26:36;12.40;;;6.10;;
18146;SDS011;9199;48.832;9.182;2023-04-20T04:29:03;12.27;;;6.10;;
18146;SDS011;9199;48.832;9.182;2023-04-20T04:31:31;11.45;;;6.60;;
18146;SDS011;9199;48.832;9.182;2023-04-20T04:33:59;11.10;;;6.15;;
18146;SDS011;9199;48.832;9.182;2023-04-20T04:36:26;10.00;;;5.83;;
18146;SDS011;9199;48.832;9.182;2023-04-20T04:38:52;10.50;;;6.05;;
18146;SDS011;9199;48.832;9.182;2023-04-20T04:41:19;12.27;;;6.00;;
18146;SDS011;9199;48.832;9.182;2023-04-20T04:43:46;10.15;;;5.90;;
18146;SDS011;9199;48.832;9.182;2023-04-20T04:46:12;9.88;;;6.00;;
18146;SDS011;9199;48.832;9.182;2023-04-20T04:48:40;12.27;;;6.33;;
18146;SDS011;9199;48.832;9.182;2023-04-20T04:51:07;12.57;;;6.38;;
18146;SDS011;9199;48.832;9.182;2023-04-20T04:53:34;10.05;;;5.95;;
18146;SDS011;9199;48.832;9.182;2023-04-20T04:56:01;10.13;;;6.25;;
18146;SDS011;9199;48.832;9.182;2023-04-20T04:58:29;10.98;;;6.30;;
18146;SDS011;9199;48.832;9.182;2023-04-20T05:00:56;10.60;;;6.37;;
18146;SDS011;9199;48.832;9.182;2023-04-20T05:03:22;12.15;;;6.88;;
18146;SDS011;9199;48.832;9.182;2023-04-20T05:05:51;15.98;;;7.97;;
18146;SDS011;9199;48.832;9.182;2023-04-20T05:08:17;13.55;;;6.22;;
18146;SDS011;9199;48.832;9.182;2023-04-20T05:10:44;14.25;;;6.97;;
18146;SDS011;9199;48.832;9.182;2023-04-20T05:13:11;12.50;;;6.17;;
18146;SDS011;9199;48.832;9.182;2023-04-20T05:15:37;9.93;;;5.40;;
18146;SDS011;9199;48.832;9.182;2023-04-20T05:18:04;10.05;;;6.10;;
18146;SDS011;9199;48.832;9.182;2023-04-20T05:20:31;12.13;;;5.80;;
18146;SDS011;9199;48.832;9.182;2023-04-20T05:22:59;11.00;;;5.60;;
18146;SDS011;9199;48.832;9.182;2023-04-20T05:25:26;11.33;;;5.73;;
18146;SDS011;9199;48.832;9.182;2023-04-20T05:27:52;10.18;;;6.05;;
18146;SDS011;9199;48.832;9.182;2023-04-20T05:30:19;11.40;;;5.78;;
18146;SDS011;9199;48.832;9.182;2023-04-20T05:32:46;11.18;;;5.75;;
18146;SDS011;9199;48.832;9.182;2023-04-20T05:35:13;10.55;;;5.53;;
18146;SDS011;9199;48.832;9.182;2023-04-20T05:37:39;9.73;;;6.03;;
18146;SDS011;9199;48.832;9.182;2023-04-20T05:40:08;12.70;;;6.22;;
18146;SDS011;9199;48.832;9.182;2023-04-20T05:42:35;11.90;;;5.88;;
18146;SDS011;9199;48.832;9.182;2023-04-20T05:45:02;12.38;;;5.80;;
18146;SDS011;9199;48.832;9.182;2023-04-20T05:47:29;10.82;;;6.13;;
18146;SDS011;9199;48.832;9.182;2023-04-20T05:49:56;9.33;;;6.00;;
18146;SDS011;9199;48.832;9.182;2023-04-20T05:52:23;10.82;;;6.40;;
18146;SDS011;9199;48.832;9.182;2023-04-20T05:54:50;10.57;;;6.53;;
18146;SDS011;9199;48.832;9.182;2023-04-20T05:57:18;11.07;;;5.93;;
18146;SDS011;9199;48.832;9.182;2023-04-20T05:59:45;12.70;;;6.30;;
18146;SDS011;9199;48.832;9.182;2023-04-20T06:02:12;10.87;;;6.47;;
18146;SDS011;9199;48.832;9.182;2023-04-20T06:04:39;15.80;;;6.68;;
18146;SDS011;9199;48.832;9.182;2023-04-20T06:07:06;13.88;;;6.80;;
18146;SDS011;9199;48.832;9.182;2023-04-20T06:09:33;10.95;;;6.45;;
18146;SDS011;9199;48.832;9.182;2023-04-20T06:11:59;12.40;;;7.13;;
18146;SDS011;9199;48.832;9.182;2023-04-20T06:14:27;11.03;;;6.67;;
18146;SDS011;9199;48.832;9.182;2023-04-20T06:16:54;12.40;;;7.10;;
18146;SDS011;9199;48.832;9.182;2023-04-20T06:19:21;11.55;;;7.30;;
18146;SDS011;9199;48.832;9.182;2023-04-20T06:21:47;11.77;;;6.03;;
18146;SDS011;9199;48.832;9.182;2023-04-20T06:24:14;11.60;;;6.20;;
18146;SDS011;9199;48.832;9.182;2023-04-20T06:26:41;10.60;;;5.80;;
18146;SDS011;9199;48.832;9.182;2023-04-20T06:29:07;10.43;;;5.53;;
18146;SDS011;9199;48.832;9.182;2023-04-20T06:31:35;10.25;;;6.00;;
18146;SDS011;9199;48.832;9.182;2023-04-20T06:34:02;9.90;;;5.65;;
18146;SDS011;9199;48.832;9.182;2023-04-20T06:36:29;11.75;;;5.72;;
18146;SDS011;9199;48.832;9.182;2023-04-20T06:38:56;11.50;;;5.60;;
18146;SDS011;9199;48.832;9.182;2023-04-20T06:41:23;8.60;;;5.50;;
18146;SDS011;9199;48.832;9.182;2023-04-20T06:43:50;8.45;;;5.75;;
18146;SDS011;9199;48.832;9.182;2023-04-20T06:46:16;8.98;;;5.43;;
18146;SDS011;9199;48.832;9.182;2023-04-20T06:48:44;8.63;;;5.50;;
18146;SDS011;9199;48.832;9.182;2023-04-20T06:51:11;8.80;;;5.23;;
18146;SDS011;9199;48.832;9.182;2023-04-20T06:53:39;8.98;;;5.30;;
18146;SDS011;9199;48.832;9.182;2023-04-20T06:56:06;9.45;;;5.32;;
18146;SDS011;9199;48.832;9.182;2023-04-20T06:58:33;9.85;;;5.22;;
18146;SDS011;9199;48.832;9.182;2023-04-20T07:01:00;9.95;;;5.03;;
18146;SDS011;9199;48.832;9.182;2023-04-20T07:03:27;11.27;;;5.40;;
18146;SDS011;9199;48.832;9.182;2023-04-20T07:05:55;8.35;;;5.30;;
18146;SDS011;9199;48.832;9.182;2023-04-20T07:08:22;9.30;;;4.85;;
18146;SDS011;9199;48.832;9.182;2023-04-20T07:10:48;12.52;;;5.45;;
18146;SDS011;9199;48.832;9.182;2023-04-20T07:13:15;7.45;;;5.18;;
18146;SDS011;9199;48.832;9.182;2023-04-20T07:15:43;8.33;;;4.83;;
18146;SDS011;9199;48.832;9.182;2023-04-20T07:18:10;10.15;;;5.35;;
18146;SDS011;9199;48.832;9.182;2023-04-20T07:20:37;9.80;;;5.00;;
18146;SDS011;9199;48.832;9.182;2023-04-20T07:23:05;9.15;;;5.43;;
18146;SDS011;9199;48.832;9.182;2023-04-20T07:25:32;9.27;;;5.72;;
18146;SDS011;9199;48.832;9.182;2023-04-20T07:27:58;8.73;;;4.73;;
18146;SDS011;9199;48.832;9.182;2023-04-20T07:30:25;10.60;;;5.30;;
18146;SDS011;9199;48.832;9.182;2023-04-20T07:32:52;9.15;;;5.25;;
18146;SDS011;9199;48.832;9.182;2023-04-20T07:35:19;8.63;;;5.18;;
18146;SDS011;9199;48.832;9.182;2023-04-20T07:37:46;8.30;;;5.25;;
18146;SDS011;9199;48.832;9.182;2023-04-20T07:40:14;9.50;;;5.80;;
18146;SDS011;9199;48.832;9.182;2023-04-20T07:42:41;8.32;;;5.47;;
18146;SDS011;9199;48.832;9.182;2023-04-20T07:45:08;9.20;;;5.10;;
18146;SDS011;9199;48.832;9.182;2023-04-20T07:47:36;8.18;;;5.03;;
18146;SDS011;9199;48.832;9.182;2023-04-20T07:50:03;8.10;;;5.28;;
18146;SDS011;9199;48.832;9.182;2023-04-20T07:52:30;8.07;;;5.37;;
18146;SDS011;9199;48.832;9.182;2023-04-20T07:54:57;8.95;;;5.50;;
18146;SDS011;9199;48.832;9.182;2023-04-20T07:57:25;9.80;;;5.80;;
18146;SDS011;9199;48.832;9.182;2023-04-20T07:59:53;8.75;;;5.63;;
18146;SDS011;9199;48.832;9.182;2023-04-20T08:02:20;10.43;;;5.80;;
18146;SDS011;9199;48.832;9.182;2023-04-20T08:04:47;9.27;;;5.47;;
18146;SDS011;9199;48.832;9.182;2023-04-20T08:07:13;10.15;;;5.72;;
18146;SDS011;9199;48.832;9.182;2023-04-20T08:09:40;8.70;;;5.53;;
18146;SDS011;9199;48.832;9.182;2023-04-20T08:12:07;9.07;;;5.40;;
18146;SDS011;9199;48.832;9.182;2023-04-20T08:14:35;12.52;;;5.95;;
18146;SDS011;9199;48.832;9.182;2023-04-20T08:17:02;8.73;;;5.40;;
18146;SDS011;9199;48.832;9.182;2023-04-20T08:19:29;9.43;;;5.60;;
18146;SDS011;9199;48.832;9.182;2023-04-20T08:21:56;8.00;;;5.30;;
18146;SDS011;9199;48.832;9.182;2023-04-20T08:24:22;8.48;;;5.88;;
18146;SDS011;9199;48.832;9.182;2023-04-20T08:26:49;8.45;;;6.10;;
18146;SDS011;9199;48.832;9.182;2023-04-20T08:29:16;10.37;;;6.10;;
18146;SDS011;9199;48.832;9.182;2023-04-20T08:31:44;9.50;;;5.60;;
18146;SDS011;9199;48.832;9.182;2023-04-20T08:34:11;9.80;;;5.93;;
18146;SDS011;9199;48.832;9.182;2023-04-20T08:36:38;7.68;;;5.60;;
18146;SDS011;9199;48.832;9.182;2023-04-20T08:39:05;10.55;;;5.97;;
18146;SDS011;9199;48.832;9.182;2023-04-20T08:41:33;12.07;;;6.50;;
18146;SDS011;9199;48.832;9.182;2023-04-20T08:44:00;9.85;;;6.05;;
18146;SDS011;9199;48.832;9.182;2023-04-20T08:46:27;10.95;;;6.53;;
18146;SDS011;9199;48.832;9.182;2023-04-20T08:48:55;12.27;;;6.35;;
18146;SDS011;9199;48.832;9.182;2023-04-20T08:51:22;10.85;;;6.55;;
18146;SDS011;9199;48.832;9.182;2023-04-20T08:53:50;9.70;;;6.27;;
18146;SDS011;9199;48.832;9.182;2023-04-20T08:56:17;11.45;;;6.70;;
18146;SDS011;9199;48.832;9.182;2023-04-20T08:58:44;12.68;;;6.75;;
18146;SDS011;9199;48.832;9.182;2023-04-20T09:01:11;11.32;;;6.53;;
18146;SDS011;9199;48.832;9.182;2023-04-20T09:03:38;11.25;;;6.88;;
18146;SDS011;9199;48.832;9.182;2023-04-20T09:06:13;12.70;;;7.13;;
18146;SDS011;9199;48.832;9.182;2023-04-20T09:08:41;10.52;;;6.45;;
18146;SDS011;9199;48.832;9.182;2023-04-20T09:11:19;10.88;;;6.80;;
18146;SDS011;9199;48.832;9.182;2023-04-20T09:13:55;12.55;;;6.70;;
18146;SDS011;9199;48.832;9.182;2023-04-20T09:16:23;12.15;;;6.80;;
18146;SDS011;9199;48.832;9.182;2023-04-20T09:18:51;10.90;;;6.90;;
18146;SDS011;9199;48.832;9.182;2023-04-20T09:21:19;10.73;;;6.63;;
18146;SDS011;9199;48.832;9.182;2023-04-20T09:23:54;10.30;;;6.45;;
18146;SDS011;9199;48.832;9.182;2023-04-20T09:26:21;13.27;;;7.30;;
18146;SDS011;9199;48.832;9.182;2023-04-20T09:28:48;11.98;;;6.75;;
18146;SDS011;9199;48.832;9.182;2023-04-20T09:31:18;12.47;;;7.13;;
18146;SDS011;9199;48.832;9.182;2023-04-20T09:33:54;12.60;;;6.75;;
18146;SDS011;9199;48.832;9.182;2023-04-20T09:36:23;9.75;;;6.10;;
18146;SDS011;9199;48.832;9.182;2023-04-20T09:39:00;9.82;;;6.70;;
18146;SDS011;9199;48.832;9.182;2023-04-20T09:41:28;8.87;;;5.90;;
18146;SDS011;9199;48.832;9.182;2023-04-20T09:43:56;10.65;;;6.20;;
18146;SDS011;9199;48.832;9.182;2023-04-20T09:46:24;10.07;;;5.93;;
18146;SDS011;9199;48.832;9.182;2023-04-20T09:48:55;9.52;;;5.85;;
18146;SDS011;9199;48.832;9.182;2023-04-20T09:51:25;10.10;;;6.28;;
18146;SDS011;9199;48.832;9.182;2023-04-20T09:53:55;11.10;;;6.25;;
18146;SDS011;9199;48.832;9.182;2023-04-20T09:56:23;9.18;;;5.88;;
18146;SDS011;9199;48.832;9.182;2023-04-20T09:58:52;10.30;;;6.40;;
18146;SDS011;9199;48.832;9.182;2023-04-20T10:01:19;9.43;;;6.30;;
18146;SDS011;9199;48.832;9.182;2023-04-20T10:03:47;10.18;;;6.32;;
18146;SDS011;9199;48.832;9.182;2023-04-20T10:06:18;13.32;;;6.45;;
18146;SDS011;9199;48.832;9.182;2023-04-20T10:08:47;9.40;;;5.75;;
18146;SDS011;9199;48.832;9.182;2023-04-20T10:11:24;9.23;;;6.23;;
18146;SDS011;9199;48.832;9.182;2023-04-20T10:13:52;11.93;;;6.20;;
18146;SDS011;9199;48.832;9.182;2023-04-20T10:16:20;9.55;;;6.32;;
18146;SDS011;9199;48.832;9.182;2023-04-20T10:18:56;11.10;;;6.70;;
18146;SDS011;9199;48.832;9.182;2023-04-20T10:21:24;9.85;;;6.68;;
18146;SDS011;9199;48.832;9.182;2023-04-20T10:23:53;10.53;;;6.80;;
18146;SDS011;9199;48.832;9.182;2023-04-20T10:26:21;9.15;;;6.22;;
18146;SDS011;9199;48.832;9.182;2023-04-20T10:28:48;9.30;;;6.32;;
18146;SDS011;9199;48.832;9.182;2023-04-20T10:31:14;10.10;;;6.30;;
18146;SDS011;9199;48.832;9.182;2023-04-20T10:33:48;11.60;;;6.53;;
18146;SDS011;9199;48.832;9.182;2023-04-20T10:36:22;10.97;;;6.87;;
18146;SDS011;9199;48.832;9.182;2023-04-20T10:38:50;11.63;;;6.10;;
18146;SDS011;9199;48.832;9.182;2023-04-20T10:41:19;9.98;;;6.28;;
18146;SDS011;9199;48.832;9.182;2023-04-20T10:43:46;11.65;;;6.65;;
18146;SDS011;9199;48.832;9.182;2023-04-20T10:46:13;10.23;;;6.68;;
18146;SDS011;9199;48.832;9.182;2023-04-20T10:48:50;8.07;;;5.50;;
18146;SDS011;9199;48.832;9.182;2023-04-20T10:51:17;8.57;;;6.05;;
18146;SDS011;9199;48.832;9.182;2023-04-20T10:53:45;9.82;;;5.93;;
18146;SDS011;9199;48.832;9.182;2023-04-20T10:56:11;9.45;;;6.47;;
18146;SDS011;9199;48.832;9.182;2023-04-20T10:58:39;9.27;;;6.65;;
18146;SDS011;9199;48.832;9.182;2023-04-20T11:01:07;11.40;;;6.60;;
18146;SDS011;9199;48.832;9.182;2023-04-20T11:03:33;8.57;;;5.50;;
18146;SDS011;9199;48.832;9.182;2023-04-20T11:06:00;8.75;;;5.80;;
18146;SDS011;9199;48.832;9.182;2023-04-20T11:08:40;8.93;;;5.53;;
18146;SDS011;9199;48.832;9.182;2023-04-20T11:11:17;7.38;;;5.03;;
18146;SDS011;9199;48.832;9.182;2023-04-20T11:13:47;9.50;;;5.40;;
18146;SDS011;9199;48.832;9.182;2023-04-20T11:16:14;9.52;;;5.40;;
18146;SDS011;9199;48.832;9.182;2023-04-20T11:18:47;9.18;;;5.60;;
18146;SDS011;9199;48.832;9.182;2023-04-20T11:21:16;11.35;;;6.07;;
18146;SDS011;9199;48.832;9.182;2023-04-20T11:23:43;9.95;;;5.80;;
18146;SDS011;9199;48.832;9.182;2023-04-20T11:26:10;10.87;;;6.27;;
18146;SDS011;9199;48.832;9.182;2023-04-20T11:28:37;10.15;;;5.63;;
18146;SDS011;9199;48.832;9.182;2023-04-20T11:31:16;8.38;;;5.47;;
18146;SDS011;9199;48.832;9.182;2023-04-20T11:33:43;10.65;;;6.35;;
18146;SDS011;9199;48.832;9.182;2023-04-20T11:36:16;10.65;;;7.05;;
18146;SDS011;9199;48.832;9.182;2023-04-20T11:38:44;9.37;;;6.30;;
18146;SDS011;9199;48.832;9.182;2023-04-20T11:41:11;9.45;;;6.30;;
18146;SDS011;9199;48.832;9.182;2023-04-20T11:43:38;10.07;;;6.40;;
18146;SDS011;9199;48.832;9.182;2023-04-20T11:46:11;9.23;;;6.03;;
18146;SDS011;9199;48.832;9.182;2023-04-20T11:48:40;10.40;;;6.68;;
18146;SDS011;9199;48.832;9.182;2023-04-20T11:51:07;10.93;;;6.80;;
18146;SDS011;9199;48.832;9.182;2023-04-20T11:53:34;12.75;;;6.72;;
18146;SDS011;9199;48.832;9.182;2023-04-20T11:56:01;10.65;;;6.93;;
18146;SDS011;9199;48.832;9.182;2023-04-20T11:58:28;13.48;;;7.38;;
18146;SDS011;9199;48.832;9.182;2023-04-20T12:00:55;11.38;;;7.72;;
18146;SDS011;9199;48.832;9.182;2023-04-20T12:03:22;10.23;;;7.23;;
18146;SDS011;9199;48.832;9.182;2023-04-20T12:05:50;11.07;;;6.90;;
18146;SDS011;9199;48.832;9.182;2023-04-20T12:08:17;10.43;;;6.68;;
18146;SDS011;9199;48.832;9.182;2023-04-20T12:10:44;11.02;;;6.90;;
18146;SDS011;9199;48.832;9.182;2023-04-20T12:13:11;10.88;;;7.70;;
18146;SDS011;9199;48.832;9.182;2023-04-20T12:15:39;11.13;;;6.90;;
18146;SDS011;9199;48.832;9.182;2023-04-20T12:18:05;10.70;;;6.88;;
18146;SDS011;9199;48.832;9.182;2023-04-20T12:20:32;10.13;;;7.47;;
18146;SDS011;9199;48.832;9.182;2023-04-20T12:23:00;10.45;;;7.00;;
18146;SDS011;9199;48.832;9.182;2023-04-20T12:25:27;11.77;;;7.32;;
18146;SDS011;9199;48.832;9.182;2023-04-20T12:27:54;10.37;;;6.83;;
18146;SDS011;9199;48.832;9.182;2023-04-20T12:30:21;11.23;;;7.68;;
18146;SDS011;9199;48.832;9.182;2023-04-20T12:32:47;9.00;;;6.57;;
18146;SDS011;9199;48.832;9.182;2023-04-20T12:35:14;10.25;;;6.88;;
18146;SDS011;9199;48.832;9.182;2023-04-20T12:37:41;10.00;;;6.68;;
18146;SDS011;9199;48.832;9.182;2023-04-20T12:40:09;11.40;;;6.30;;
18146;SDS011;9199;48.832;9.182;2023-04-20T12:42:36;9.38;;;6.28;;
18146;SDS011;9199;48.832;9.182;2023-04-20T12:45:03;9.13;;;6.10;;
18146;SDS011;9199;48.832;9.182;2023-04-20T12:47:31;10.20;;;5.93;;
18146;SDS011;9199;48.832;9.182;2023-04-20T12:49:57;10.38;;;5.93;;
18146;SDS011;9199;48.832;9.182;2023-04-20T12:52:24;9.33;;;6.23;;
18146;SDS011;9199;48.832;9.182;2023-04-20T12:54:51;9.82;;;6.68;;
18146;SDS011;9199;48.832;9.182;2023-04-20T12:57:19;8.95;;;5.78;;
18146;SDS011;9199;48.832;9.182;2023-04-20T12:59:46;9.10;;;5.90;;
18146;SDS011;9199;48.832;9.182;2023-04-20T13:02:14;11.50;;;6.30;;
18146;SDS011;9199;48.832;9.182;2023-04-20T13:04:40;9.33;;;5.87;;
18146;SDS011;9199;48.832;9.182;2023-04-20T13:07:07;8.02;;;5.63;;
18146;SDS011;9199;48.832;9.182;2023-04-20T13:09:34;11.15;;;6.10;;
18146;SDS011;9199;48.832;9.182;2023-04-20T13:12:01;12.20;;;5.70;;
18146;SDS011;9199;48.832;9.182;2023-04-20T13:14:29;8.60;;;5.53;;
18146;SDS011;9199;48.832;9.182;2023-04-20T13:16:56;9.33;;;5.23;;
18146;SDS011;9199;48.832;9.182;2023-04-20T13:19:25;9.45;;;5.78;;
18146;SDS011;9199;48.832;9.182;2023-04-20T13:21:52;9.40;;;5.70;;
18146;SDS011;9199;48.832;9.182;2023-04-20T13:24:19;9.90;;;5.15;;
18146;SDS011;9199;48.832;9.182;2023-04-20T13:26:46;8.10;;;5.10;;
18146;SDS011;9199;48.832;9.182;2023-04-20T13:29:12;9.17;;;5.03;;
18146;SDS011;9199;48.832;9.182;2023-04-20T13:31:41;8.63;;;4.75;;
18146;SDS011;9199;48.832;9.182;2023-04-20T13:34:08;8.43;;;5.40;;
18146;SDS011;9199;48.832;9.182;2023-04-20T13:36:35;9.32;;;5.20;;
18146;SDS011;9199;48.832;9.182;2023-04-20T13:39:01;7.68;;;4.65;;
18146;SDS011;9199;48.832;9.182;2023-04-20T13:41:28;7.10;;;4.73;;
18146;SDS011;9199;48.832;9.182;2023-04-20T13:43:56;8.68;;;5.20;;
18146;SDS011;9199;48.832;9.182;2023-04-20T13:46:25;7.72;;;4.63;;
18146;SDS011;9199;48.832;9.182;2023-04-20T13:48:53;7.78;;;4.95;;
18146;SDS011;9199;48.832;9.182;2023-04-20T13:51:19;8.52;;;5.30;;
18146;SDS011;9199;48.832;9.182;2023-04-20T13:53:46;8.00;;;4.83;;
18146;SDS011;9199;48.832;9.182;2023-04-20T13:56:13;8.82;;;5.35;;
18146;SDS011;9199;48.832;9.182;2023-04-20T13:58:40;8.65;;;5.22;;
18146;SDS011;9199;48.832;9.182;2023-04-20T14:01:07;11.05;;;5.53;;
18146;SDS011;9199;48.832;9.182;2023-04-20T14:03:34;8.50;;;5.10;;
18146;SDS011;9199;48.832;9.182;2023-04-20T14:06:02;8.03;;;5.30;;
18146;SDS011;9199;48.832;9.182;2023-04-20T14:08:29;8.90;;;5.40;;
18146;SDS011;9199;48.832;9.182;2023-04-20T14:10:56;7.97;;;5.20;;
18146;SDS011;9199;48.832;9.182;2023-04-20T14:13:23;8.65;;;5.55;;
18146;SDS011;9199;48.832;9.182;2023-04-20T14:15:50;9.63;;;5.40;;
18146;SDS011;9199;48.832;9.182;2023-04-20T14:18:18;11.30;;;5.63;;
18146;SDS011;9199;48.832;9.182;2023-04-20T14:20:45;8.80;;;5.43;;
18146;SDS011;9199;48.832;9.182;2023-04-20T14:23:17;8.05;;;5.15;;
18146;SDS011;9199;48.832;9.182;2023-04-20T14:25:44;10.27;;;6.00;;
18146;SDS011;9199;48.832;9.182;2023-04-20T14:28:12;10.68;;;5.35;;
18146;SDS011;9199;48.832;9.182;2023-04-20T14:30:42;9.30;;;5.20;;
18146;SDS011;9199;48.832;9.182;2023-04-20T14:33:08;8.77;;;6.00;;
18146;SDS011;9199;48.832;9.182;2023-04-20T14:35:35;8.90;;;5.35;;
18146;SDS011;9199;48.832;9.182;2023-04-20T14:38:02;11.45;;;5.38;;
18146;SDS011;9199;48.832;9.182;2023-04-20T14:40:30;10.52;;;6.10;;
18146;SDS011;9199;48.832;9.182;2023-04-20T14:42:57;10.23;;;6.10;;
18146;SDS011;9199;48.832;9.182;2023-04-20T14:45:23;7.97;;;5.65;;
18146;SDS011;9199;48.832;9.182;2023-04-20T14:47:51;9.80;;;5.90;;
18146;SDS011;9199;48.832;9.182;2023-04-20T14:50:18;9.00;;;5.50;;
18146;SDS011;9199;48.832;9.182;2023-04-20T14:52:45;9.10;;;5.93;;
18146;SDS011;9199;48.832;9.182;2023-04-20T14:55:12;8.83;;;5.67;;
18146;SDS011;9199;48.832;9.182;2023-04-20T14:57:40;9.38;;;5.68;;